sensor_id;sensor_type;location;lat;lon;timestamp;temperature;humidity
14099;DHT22;7126;48.458;7.930;2023-03-01T00:00:49;1.80;99.90
14099;DHT22;7126;48.458;7.930;2023-03-01T00:03:15;1.70;99.90
14099;DHT22;7126;48.458;7.930;2023-03-01T00:05:45;1.80;99.90
14099;DHT22;7126;48.458;7.930;2023-03-01T00:08:11;1.80;99.90
14099;DHT22;7126;48.458;7.930;2023-03-01T00:10:36;1.70;99.90
14099;DHT22;7126;48.458;7.930;2023-03-01T00:13:02;1.70;99.90
14099;DHT22;7126;48.458;7.930;2023-03-01T00:15:28;1.70;99.90
14099;DHT22;7126;48.458;7.930;2023-03-01T00:17:53;1.60;99.90
14099;DHT22;7126;48.458;7.930;2023-03-01T00:20:19;1.40;99.90
14099;DHT22;7126;48.458;7.930;2023-03-01T00:22:44;1.20;99.90
14099;DHT22;7126;48.458;7.930;2023-03-01T00:25:10;1.10;99.90
14099;DHT22;7126;48.458;7.930;2023-03-01T00:27:35;1.10;99.90
14099;DHT22;7126;48.458;7.930;2023-03-01T00:30:01;1.10;99.90
14099;DHT22;7126;48.458;7.930;2023-03-01T00:32:26;1.00;99.90
14099;DHT22;7126;48.458;7.930;2023-03-01T00:34:52;1.00;99.90
14099;DHT22;7126;48.458;7.930;2023-03-01T00:37:21;1.00;99.90
14099;DHT22;7126;48.458;7.930;2023-03-01T00:39:47;1.00;99.90
14099;DHT22;7126;48.458;7.930;2023-03-01T00:42:13;1.00;99.90
14099;DHT22;7126;48.458;7.930;2023-03-01T00:44:38;1.00;99.90
14099;DHT22;7126;48.458;7.930;2023-03-01T00:47:04;0.90;99.90
14099;DHT22;7126;48.458;7.930;2023-03-01T00:49:29;1.00;99.90
14099;DHT22;7126;48.458;7.930;2023-03-01T00:51:55;0.90;99.90
14099;DHT22;7126;48.458;7.930;2023-03-01T00:54:20;0.80;99.90
14099;DHT22;7126;48.458;7.930;2023-03-01T00:56:46;0.70;99.90
14099;DHT22;7126;48.458;7.930;2023-03-01T00:59:11;0.50;99.90
14099;DHT22;7126;48.458;7.930;2023-03-01T01:01:37;0.50;99.90
14099;DHT22;7126;48.458;7.930;2023-03-01T01:04:09;0.60;99.90
14099;DHT22;7126;48.458;7.930;2023-03-01T01:06:42;0.60;99.90
14099;DHT22;7126;48.458;7.930;2023-03-01T01:09:11;0.60;99.90
14099;DHT22;7126;48.458;7.930;2023-03-01T01:11:43;0.60;99.90
14099;DHT22;7126;48.458;7.930;2023-03-01T01:14:09;0.40;99.90
14099;DHT22;7126;48.458;7.930;2023-03-01T01:16:35;0.30;99.90
14099;DHT22;7126;48.458;7.930;2023-03-01T01:19:01;0.40;99.90
14099;DHT22;7126;48.458;7.930;2023-03-01T01:21:27;0.30;99.90
14099;DHT22;7126;48.458;7.930;2023-03-01T01:23:53;0.30;99.90
14099;DHT22;7126;48.458;7.930;2023-03-01T01:26:22;0.40;99.90
14099;DHT22;7126;48.458;7.930;2023-03-01T01:28:48;0.50;99.90
14099;DHT22;7126;48.458;7.930;2023-03-01T01:31:14;0.50;99.90
14099;DHT22;7126;48.458;7.930;2023-03-01T01:33:40;0.50;99.90
14099;DHT22;7126;48.458;7.930;2023-03-01T01:36:07;0.50;99.90
14099;DHT22;7126;48.458;7.930;2023-03-01T01:38:34;0.60;99.90
14099;DHT22;7126;48.458;7.930;2023-03-01T01:41:00;0.60;99.90
14099;DHT22;7126;48.458;7.930;2023-03-01T01:43:32;0.70;99.90
14099;DHT22;7126;48.458;7.930;2023-03-01T01:48:44;0.80;99.90
14099;DHT22;7126;48.458;7.930;2023-03-01T01:51:17;0.80;99.90
14099;DHT22;7126;48.458;7.930;2023-03-01T01:53:45;0.90;99.90
14099;DHT22;7126;48.458;7.930;2023-03-01T01:56:13;0.90;99.90
14099;DHT22;7126;48.458;7.930;2023-03-01T01:58:41;1.00;99.90
14099;DHT22;7126;48.458;7.930;2023-03-01T02:01:09;1.10;99.90
14099;DHT22;7126;48.458;7.930;2023-03-01T02:03:38;1.00;99.90
14099;DHT22;7126;48.458;7.930;2023-03-01T02:06:18;1.10;99.90
14099;DHT22;7126;48.458;7.930;2023-03-01T02:08:46;1.20;99.90
14099;DHT22;7126;48.458;7.930;2023-03-01T02:11:13;1.30;99.90
14099;DHT22;7126;48.458;7.930;2023-03-01T02:13:40;1.20;99.90
14099;DHT22;7126;48.458;7.930;2023-03-01T02:16:10;1.20;99.90
14099;DHT22;7126;48.458;7.930;2023-03-01T02:18:38;1.00;99.90
14099;DHT22;7126;48.458;7.930;2023-03-01T02:21:23;1.10;99.90
14099;DHT22;7126;48.458;7.930;2023-03-01T02:23:50;1.10;99.90
14099;DHT22;7126;48.458;7.930;2023-03-01T02:26:40;1.10;99.90
14099;DHT22;7126;48.458;7.930;2023-03-01T02:29:07;1.00;99.90
14099;DHT22;7126;48.458;7.930;2023-03-01T02:31:33;1.00;99.90
14099;DHT22;7126;48.458;7.930;2023-03-01T02:34:24;1.00;99.90
14099;DHT22;7126;48.458;7.930;2023-03-01T02:37:01;1.00;99.90
14099;DHT22;7126;48.458;7.930;2023-03-01T02:39:38;1.00;99.90
14099;DHT22;7126;48.458;7.930;2023-03-01T02:42:13;1.10;99.90
14099;DHT22;7126;48.458;7.930;2023-03-01T02:44:40;1.10;99.90
14099;DHT22;7126;48.458;7.930;2023-03-01T02:47:06;1.10;99.90
14099;DHT22;7126;48.458;7.930;2023-03-01T02:49:34;1.00;99.90
14099;DHT22;7126;48.458;7.930;2023-03-01T02:54:53;1.00;99.90
14099;DHT22;7126;48.458;7.930;2023-03-01T02:57:22;1.10;99.90
14099;DHT22;7126;48.458;7.930;2023-03-01T02:59:49;1.10;99.90
14099;DHT22;7126;48.458;7.930;2023-03-01T03:02:25;1.00;99.90
14099;DHT22;7126;48.458;7.930;2023-03-01T03:05:09;1.10;99.90
14099;DHT22;7126;48.458;7.930;2023-03-01T03:07:37;1.00;99.90
14099;DHT22;7126;48.458;7.930;2023-03-01T03:10:04;1.00;99.90
14099;DHT22;7126;48.458;7.930;2023-03-01T03:12:31;1.00;99.90
14099;DHT22;7126;48.458;7.930;2023-03-01T03:14:56;1.00;99.90
14099;DHT22;7126;48.458;7.930;2023-03-01T03:17:22;0.90;99.90
14099;DHT22;7126;48.458;7.930;2023-03-01T03:19:48;0.90;99.90
14099;DHT22;7126;48.458;7.930;2023-03-01T03:22:13;0.90;99.90
14099;DHT22;7126;48.458;7.930;2023-03-01T03:24:39;0.90;99.90
14099;DHT22;7126;48.458;7.930;2023-03-01T03:27:06;0.90;99.90
14099;DHT22;7126;48.458;7.930;2023-03-01T03:29:32;0.80;99.90
14099;DHT22;7126;48.458;7.930;2023-03-01T03:31:57;0.80;99.90
14099;DHT22;7126;48.458;7.930;2023-03-01T03:34:23;0.70;99.90
14099;DHT22;7126;48.458;7.930;2023-03-01T03:36:53;0.70;99.90
14099;DHT22;7126;48.458;7.930;2023-03-01T03:39:25;0.70;99.90
14099;DHT22;7126;48.458;7.930;2023-03-01T03:41:51;0.80;99.90
14099;DHT22;7126;48.458;7.930;2023-03-01T03:44:21;0.70;99.90
14099;DHT22;7126;48.458;7.930;2023-03-01T03:46:46;0.70;99.90
14099;DHT22;7126;48.458;7.930;2023-03-01T03:49:12;0.70;99.90
14099;DHT22;7126;48.458;7.930;2023-03-01T03:51:38;0.70;99.90
14099;DHT22;7126;48.458;7.930;2023-03-01T03:54:03;0.70;99.90
14099;DHT22;7126;48.458;7.930;2023-03-01T03:56:29;0.70;99.90
14099;DHT22;7126;48.458;7.930;2023-03-01T03:58:54;0.70;99.90
14099;DHT22;7126;48.458;7.930;2023-03-01T04:01:20;0.70;99.90
14099;DHT22;7126;48.458;7.930;2023-03-01T04:03:45;0.70;99.90
14099;DHT22;7126;48.458;7.930;2023-03-01T04:06:19;0.70;99.90
14099;DHT22;7126;48.458;7.930;2023-03-01T04:08:45;0.50;99.90
14099;DHT22;7126;48.458;7.930;2023-03-01T04:11:11;0.60;99.90
14099;DHT22;7126;48.458;7.930;2023-03-01T04:13:54;0.50;99.90
14099;DHT22;7126;48.458;7.930;2023-03-01T04:16:20;0.60;99.90
14099;DHT22;7126;48.458;7.930;2023-03-01T04:18:46;0.60;99.90
14099;DHT22;7126;48.458;7.930;2023-03-01T04:21:12;0.50;99.90
14099;DHT22;7126;48.458;7.930;2023-03-01T04:23:37;0.50;99.90
14099;DHT22;7126;48.458;7.930;2023-03-01T04:26:03;0.60;99.90
14099;DHT22;7126;48.458;7.930;2023-03-01T04:28:37;0.60;99.90
14099;DHT22;7126;48.458;7.930;2023-03-01T04:31:06;0.60;99.90
14099;DHT22;7126;48.458;7.930;2023-03-01T04:33:39;0.60;99.90
14099;DHT22;7126;48.458;7.930;2023-03-01T04:36:05;0.60;99.90
14099;DHT22;7126;48.458;7.930;2023-03-01T04:38:34;0.50;99.90
14099;DHT22;7126;48.458;7.930;2023-03-01T04:41:01;0.40;99.90
14099;DHT22;7126;48.458;7.930;2023-03-01T04:43:28;0.40;99.90
14099;DHT22;7126;48.458;7.930;2023-03-01T04:45:54;0.50;99.90
14099;DHT22;7126;48.458;7.930;2023-03-01T04:48:19;0.50;99.90
14099;DHT22;7126;48.458;7.930;2023-03-01T04:50:45;0.50;99.90
14099;DHT22;7126;48.458;7.930;2023-03-01T04:53:11;0.50;99.90
14099;DHT22;7126;48.458;7.930;2023-03-01T04:55:36;0.50;99.90
14099;DHT22;7126;48.458;7.930;2023-03-01T04:58:02;0.50;99.90
14099;DHT22;7126;48.458;7.930;2023-03-01T05:00:27;0.60;99.90
14099;DHT22;7126;48.458;7.930;2023-03-01T05:02:59;0.60;99.90
14099;DHT22;7126;48.458;7.930;2023-03-01T05:05:31;0.60;99.90
14099;DHT22;7126;48.458;7.930;2023-03-01T05:08:00;0.60;99.90
14099;DHT22;7126;48.458;7.930;2023-03-01T05:10:27;0.60;99.90
14099;DHT22;7126;48.458;7.930;2023-03-01T05:12:54;0.70;99.90
14099;DHT22;7126;48.458;7.930;2023-03-01T05:15:20;0.70;99.90
14099;DHT22;7126;48.458;7.930;2023-03-01T05:17:51;0.60;99.90
14099;DHT22;7126;48.458;7.930;2023-03-01T05:20:17;0.60;99.90
14099;DHT22;7126;48.458;7.930;2023-03-01T05:22:43;0.60;99.90
14099;DHT22;7126;48.458;7.930;2023-03-01T05:25:09;0.70;99.90
14099;DHT22;7126;48.458;7.930;2023-03-01T05:27:35;0.70;99.90
14099;DHT22;7126;48.458;7.930;2023-03-01T05:30:01;0.70;99.90
14099;DHT22;7126;48.458;7.930;2023-03-01T05:32:42;0.70;99.90
14099;DHT22;7126;48.458;7.930;2023-03-01T05:35:09;0.70;99.90
14099;DHT22;7126;48.458;7.930;2023-03-01T05:37:48;0.70;99.90
14099;DHT22;7126;48.458;7.930;2023-03-01T05:40:23;0.70;99.90
14099;DHT22;7126;48.458;7.930;2023-03-01T05:42:54;0.70;99.90
14099;DHT22;7126;48.458;7.930;2023-03-01T05:45:21;0.70;99.90
14099;DHT22;7126;48.458;7.930;2023-03-01T05:47:48;0.80;99.90
14099;DHT22;7126;48.458;7.930;2023-03-01T05:52:40;0.90;99.90
14099;DHT22;7126;48.458;7.930;2023-03-01T05:55:06;0.90;99.90
14099;DHT22;7126;48.458;7.930;2023-03-01T05:57:31;1.00;99.90
14099;DHT22;7126;48.458;7.930;2023-03-01T05:59:57;1.00;99.90
14099;DHT22;7126;48.458;7.930;2023-03-01T06:02:22;1.00;99.90
14099;DHT22;7126;48.458;7.930;2023-03-01T06:04:48;1.00;99.90
14099;DHT22;7126;48.458;7.930;2023-03-01T06:07:13;0.90;99.90
14099;DHT22;7126;48.458;7.930;2023-03-01T06:09:39;0.90;99.90
14099;DHT22;7126;48.458;7.930;2023-03-01T06:12:05;0.90;99.90
14099;DHT22;7126;48.458;7.930;2023-03-01T06:14:30;0.90;99.90
14099;DHT22;7126;48.458;7.930;2023-03-01T06:16:56;0.90;99.90
14099;DHT22;7126;48.458;7.930;2023-03-01T06:19:22;0.90;99.90
14099;DHT22;7126;48.458;7.930;2023-03-01T06:21:47;0.90;99.90
14099;DHT22;7126;48.458;7.930;2023-03-01T06:24:13;0.80;99.90
14099;DHT22;7126;48.458;7.930;2023-03-01T06:26:39;0.80;99.90
14099;DHT22;7126;48.458;7.930;2023-03-01T06:29:04;0.80;99.90
14099;DHT22;7126;48.458;7.930;2023-03-01T06:31:30;0.80;99.90
14099;DHT22;7126;48.458;7.930;2023-03-01T06:33:55;0.90;99.90
14099;DHT22;7126;48.458;7.930;2023-03-01T06:36:21;0.90;99.90
14099;DHT22;7126;48.458;7.930;2023-03-01T06:38:47;0.90;99.90
14099;DHT22;7126;48.458;7.930;2023-03-01T06:41:12;0.90;99.90
14099;DHT22;7126;48.458;7.930;2023-03-01T06:43:38;0.90;99.90
14099;DHT22;7126;48.458;7.930;2023-03-01T06:46:05;0.80;99.90
14099;DHT22;7126;48.458;7.930;2023-03-01T06:48:32;0.80;99.90
14099;DHT22;7126;48.458;7.930;2023-03-01T06:50:59;0.80;99.90
14099;DHT22;7126;48.458;7.930;2023-03-01T06:53:27;0.80;99.90
14099;DHT22;7126;48.458;7.930;2023-03-01T06:55:58;0.80;99.90
14099;DHT22;7126;48.458;7.930;2023-03-01T06:58:25;0.90;99.90
14099;DHT22;7126;48.458;7.930;2023-03-01T07:00:51;0.90;99.90
14099;DHT22;7126;48.458;7.930;2023-03-01T07:03:18;1.00;99.90
14099;DHT22;7126;48.458;7.930;2023-03-01T07:05:44;1.00;99.90
14099;DHT22;7126;48.458;7.930;2023-03-01T07:08:10;1.10;99.90
14099;DHT22;7126;48.458;7.930;2023-03-01T07:10:35;1.10;99.90
14099;DHT22;7126;48.458;7.930;2023-03-01T07:13:01;1.20;99.90
14099;DHT22;7126;48.458;7.930;2023-03-01T07:15:27;1.10;99.90
14099;DHT22;7126;48.458;7.930;2023-03-01T07:17:53;1.10;99.90
14099;DHT22;7126;48.458;7.930;2023-03-01T07:20:19;1.20;99.90
14099;DHT22;7126;48.458;7.930;2023-03-01T07:22:50;1.20;99.90
14099;DHT22;7126;48.458;7.930;2023-03-01T07:25:15;1.10;99.90
14099;DHT22;7126;48.458;7.930;2023-03-01T07:27:41;1.10;99.90
14099;DHT22;7126;48.458;7.930;2023-03-01T07:30:07;1.00;99.90
14099;DHT22;7126;48.458;7.930;2023-03-01T07:32:33;1.10;99.90
14099;DHT22;7126;48.458;7.930;2023-03-01T07:34:58;1.10;99.90
14099;DHT22;7126;48.458;7.930;2023-03-01T07:37:24;1.10;99.90
14099;DHT22;7126;48.458;7.930;2023-03-01T07:39:49;1.20;99.90
14099;DHT22;7126;48.458;7.930;2023-03-01T07:42:15;1.30;99.90
14099;DHT22;7126;48.458;7.930;2023-03-01T07:44:40;1.30;99.90
14099;DHT22;7126;48.458;7.930;2023-03-01T07:47:06;1.30;99.90
14099;DHT22;7126;48.458;7.930;2023-03-01T07:49:32;1.40;99.90
14099;DHT22;7126;48.458;7.930;2023-03-01T07:51:57;1.50;99.90
14099;DHT22;7126;48.458;7.930;2023-03-01T07:54:23;1.40;99.90
14099;DHT22;7126;48.458;7.930;2023-03-01T07:56:49;1.50;99.90
14099;DHT22;7126;48.458;7.930;2023-03-01T07:59:14;1.50;99.90
14099;DHT22;7126;48.458;7.930;2023-03-01T08:01:40;1.50;99.90
14099;DHT22;7126;48.458;7.930;2023-03-01T08:04:07;1.60;99.90
14099;DHT22;7126;48.458;7.930;2023-03-01T08:06:35;1.60;99.90
14099;DHT22;7126;48.458;7.930;2023-03-01T08:09:00;1.70;99.90
14099;DHT22;7126;48.458;7.930;2023-03-01T08:11:26;1.80;99.90
14099;DHT22;7126;48.458;7.930;2023-03-01T08:13:53;1.80;99.90
14099;DHT22;7126;48.458;7.930;2023-03-01T08:16:19;1.90;99.90
14099;DHT22;7126;48.458;7.930;2023-03-01T08:18:45;1.90;99.90
14099;DHT22;7126;48.458;7.930;2023-03-01T08:21:13;1.90;99.90
14099;DHT22;7126;48.458;7.930;2023-03-01T08:23:39;1.90;99.90
14099;DHT22;7126;48.458;7.930;2023-03-01T08:26:09;1.80;99.90
14099;DHT22;7126;48.458;7.930;2023-03-01T08:28:35;1.90;99.90
14099;DHT22;7126;48.458;7.930;2023-03-01T08:31:02;2.10;99.90
14099;DHT22;7126;48.458;7.930;2023-03-01T08:33:27;2.20;99.90
14099;DHT22;7126;48.458;7.930;2023-03-01T08:36:02;2.30;99.90
14099;DHT22;7126;48.458;7.930;2023-03-01T08:38:28;2.30;99.90
14099;DHT22;7126;48.458;7.930;2023-03-01T08:40:53;2.40;99.90
14099;DHT22;7126;48.458;7.930;2023-03-01T08:43:19;2.50;99.90
14099;DHT22;7126;48.458;7.930;2023-03-01T08:45:44;2.50;99.90
14099;DHT22;7126;48.458;7.930;2023-03-01T08:48:10;2.70;99.90
14099;DHT22;7126;48.458;7.930;2023-03-01T08:50:35;2.70;99.90
14099;DHT22;7126;48.458;7.930;2023-03-01T08:53:01;2.80;99.90
14099;DHT22;7126;48.458;7.930;2023-03-01T08:55:26;2.90;99.90
14099;DHT22;7126;48.458;7.930;2023-03-01T08:57:52;3.00;99.90
14099;DHT22;7126;48.458;7.930;2023-03-01T09:00:18;3.10;99.90
14099;DHT22;7126;48.458;7.930;2023-03-01T09:02:43;3.10;99.90
14099;DHT22;7126;48.458;7.930;2023-03-01T09:05:09;3.10;99.90
14099;DHT22;7126;48.458;7.930;2023-03-01T09:07:34;3.20;99.90
14099;DHT22;7126;48.458;7.930;2023-03-01T09:10:00;3.30;99.90
14099;DHT22;7126;48.458;7.930;2023-03-01T09:12:25;3.30;99.90
14099;DHT22;7126;48.458;7.930;2023-03-01T09:14:51;3.30;99.90
14099;DHT22;7126;48.458;7.930;2023-03-01T09:17:17;3.30;99.90
14099;DHT22;7126;48.458;7.930;2023-03-01T09:19:42;3.40;99.90
14099;DHT22;7126;48.458;7.930;2023-03-01T09:22:08;3.40;99.90
14099;DHT22;7126;48.458;7.930;2023-03-01T09:24:33;3.40;99.90
14099;DHT22;7126;48.458;7.930;2023-03-01T09:26:59;3.40;99.90
14099;DHT22;7126;48.458;7.930;2023-03-01T09:29:25;3.60;99.90
14099;DHT22;7126;48.458;7.930;2023-03-01T09:31:51;3.70;99.90
14099;DHT22;7126;48.458;7.930;2023-03-01T09:34:20;3.90;99.90
14099;DHT22;7126;48.458;7.930;2023-03-01T09:36:48;4.00;99.90
14099;DHT22;7126;48.458;7.930;2023-03-01T09:39:14;4.10;99.90
14099;DHT22;7126;48.458;7.930;2023-03-01T09:42:02;4.20;99.90
14099;DHT22;7126;48.458;7.930;2023-03-01T09:47:18;4.50;99.90
14099;DHT22;7126;48.458;7.930;2023-03-01T09:49:57;4.60;99.90
14099;DHT22;7126;48.458;7.930;2023-03-01T09:55:13;4.80;99.90
14099;DHT22;7126;48.458;7.930;2023-03-01T10:00:44;5.10;99.90
14099;DHT22;7126;48.458;7.930;2023-03-01T10:06:19;5.30;99.90
14099;DHT22;7126;48.458;7.930;2023-03-01T10:08:57;5.50;99.90
14099;DHT22;7126;48.458;7.930;2023-03-01T10:11:27;5.60;99.90
14099;DHT22;7126;48.458;7.930;2023-03-01T10:14:03;5.80;99.90
14099;DHT22;7126;48.458;7.930;2023-03-01T10:19:39;5.90;99.90
14099;DHT22;7126;48.458;7.930;2023-03-01T10:24:39;6.20;99.90
14099;DHT22;7126;48.458;7.930;2023-03-01T10:27:16;6.20;99.90
14099;DHT22;7126;48.458;7.930;2023-03-01T10:32:19;6.50;99.90
14099;DHT22;7126;48.458;7.930;2023-03-01T10:34:47;6.60;99.90
14099;DHT22;7126;48.458;7.930;2023-03-01T10:37:18;6.70;99.90
14099;DHT22;7126;48.458;7.930;2023-03-01T10:40:05;6.80;99.90
14099;DHT22;7126;48.458;7.930;2023-03-01T10:42:40;6.90;99.90
14099;DHT22;7126;48.458;7.930;2023-03-01T10:50:45;7.30;99.90
14099;DHT22;7126;48.458;7.930;2023-03-01T10:53:22;7.40;99.90
14099;DHT22;7126;48.458;7.930;2023-03-01T10:58:34;7.70;99.90
14099;DHT22;7126;48.458;7.930;2023-03-01T11:01:06;7.70;99.90
14099;DHT22;7126;48.458;7.930;2023-03-01T11:03:37;7.80;99.90
14099;DHT22;7126;48.458;7.930;2023-03-01T11:06:20;7.90;99.90
14099;DHT22;7126;48.458;7.930;2023-03-01T11:08:48;8.00;99.90
14099;DHT22;7126;48.458;7.930;2023-03-01T11:11:34;8.10;99.90
14099;DHT22;7126;48.458;7.930;2023-03-01T11:16:35;8.40;99.90
14099;DHT22;7126;48.458;7.930;2023-03-01T11:21:32;8.50;99.90
14099;DHT22;7126;48.458;7.930;2023-03-01T11:24:01;8.50;99.90
14099;DHT22;7126;48.458;7.930;2023-03-01T11:26:28;8.70;99.90
14099;DHT22;7126;48.458;7.930;2023-03-01T11:28:59;8.80;99.90
14099;DHT22;7126;48.458;7.930;2023-03-01T11:31:28;9.00;99.90
14099;DHT22;7126;48.458;7.930;2023-03-01T11:34:16;9.10;99.90
14099;DHT22;7126;48.458;7.930;2023-03-01T11:36:54;9.20;99.90
14099;DHT22;7126;48.458;7.930;2023-03-01T11:39:33;9.30;99.90
14099;DHT22;7126;48.458;7.930;2023-03-01T11:42:38;9.40;99.90
14099;DHT22;7126;48.458;7.930;2023-03-01T11:45:10;9.60;99.90
14099;DHT22;7126;48.458;7.930;2023-03-01T11:47:55;9.70;99.90
14099;DHT22;7126;48.458;7.930;2023-03-01T11:50:26;9.70;99.90
14099;DHT22;7126;48.458;7.930;2023-03-01T11:56:03;10.00;99.90
14099;DHT22;7126;48.458;7.930;2023-03-01T12:15:52;10.70;99.90
14099;DHT22;7126;48.458;7.930;2023-03-01T12:18:55;10.90;99.90
14099;DHT22;7126;48.458;7.930;2023-03-01T12:27:01;11.10;99.90
14099;DHT22;7126;48.458;7.930;2023-03-01T12:32:39;11.40;99.90
14099;DHT22;7126;48.458;7.930;2023-03-01T12:38:54;11.50;99.90
14099;DHT22;7126;48.458;7.930;2023-03-01T12:41:20;11.70;99.90
14099;DHT22;7126;48.458;7.930;2023-03-01T12:44:06;11.80;99.90
14099;DHT22;7126;48.458;7.930;2023-03-01T12:47:00;11.90;99.90
14099;DHT22;7126;48.458;7.930;2023-03-01T12:49:36;12.00;99.90
14099;DHT22;7126;48.458;7.930;2023-03-01T12:52:16;12.10;99.90
14099;DHT22;7126;48.458;7.930;2023-03-01T12:54:44;12.20;99.90
14099;DHT22;7126;48.458;7.930;2023-03-01T12:57:16;12.30;99.90
14099;DHT22;7126;48.458;7.930;2023-03-01T13:02:42;12.50;99.90
14099;DHT22;7126;48.458;7.930;2023-03-01T13:11:40;12.70;99.90
14099;DHT22;7126;48.458;7.930;2023-03-01T13:13:44;12.80;99.40
14099;DHT22;7126;48.458;7.930;2023-03-01T13:19:08;12.90;99.00
14099;DHT22;7126;48.458;7.930;2023-03-01T13:21:35;13.00;98.30
14099;DHT22;7126;48.458;7.930;2023-03-01T13:24:00;13.00;98.30
14099;DHT22;7126;48.458;7.930;2023-03-01T13:26:26;12.90;98.20
14099;DHT22;7126;48.458;7.930;2023-03-01T13:28:56;13.00;98.60
14099;DHT22;7126;48.458;7.930;2023-03-01T13:44:37;12.90;97.60
14099;DHT22;7126;48.458;7.930;2023-03-01T13:49:55;12.90;98.00
14099;DHT22;7126;48.458;7.930;2023-03-01T13:53:04;12.90;98.10
14099;DHT22;7126;48.458;7.930;2023-03-01T13:55:45;12.90;97.80
14099;DHT22;7126;48.458;7.930;2023-03-01T13:58:29;12.80;97.60
14099;DHT22;7126;48.458;7.930;2023-03-01T14:01:00;12.60;97.90
14099;DHT22;7126;48.458;7.930;2023-03-01T14:03:27;12.60;98.10
14099;DHT22;7126;48.458;7.930;2023-03-01T14:06:06;12.60;98.20
14099;DHT22;7126;48.458;7.930;2023-03-01T14:08:34;12.60;98.00
14099;DHT22;7126;48.458;7.930;2023-03-01T14:16:45;12.60;97.90
14099;DHT22;7126;48.458;7.930;2023-03-01T14:19:23;12.60;97.70
14099;DHT22;7126;48.458;7.930;2023-03-01T14:24:54;12.50;97.90
14099;DHT22;7126;48.458;7.930;2023-03-01T14:27:20;12.40;97.90
14099;DHT22;7126;48.458;7.930;2023-03-01T14:29:57;12.30;98.20
14099;DHT22;7126;48.458;7.930;2023-03-01T14:32:26;12.30;98.00
14099;DHT22;7126;48.458;7.930;2023-03-01T14:34:52;12.30;98.20
14099;DHT22;7126;48.458;7.930;2023-03-01T14:37:27;12.20;97.90
14099;DHT22;7126;48.458;7.930;2023-03-01T14:39:54;12.10;97.90
14099;DHT22;7126;48.458;7.930;2023-03-01T14:42:22;12.00;98.20
14099;DHT22;7126;48.458;7.930;2023-03-01T14:44:51;11.90;98.30
14099;DHT22;7126;48.458;7.930;2023-03-01T14:47:37;11.90;98.60
14099;DHT22;7126;48.458;7.930;2023-03-01T14:50:26;11.80;98.80
14099;DHT22;7126;48.458;7.930;2023-03-01T14:53:04;11.80;98.40
14099;DHT22;7126;48.458;7.930;2023-03-01T14:55:37;11.60;98.60
14099;DHT22;7126;48.458;7.930;2023-03-01T14:58:11;11.50;99.00
14099;DHT22;7126;48.458;7.930;2023-03-01T15:00:37;11.50;99.20
14099;DHT22;7126;48.458;7.930;2023-03-01T15:03:08;11.40;99.10
14099;DHT22;7126;48.458;7.930;2023-03-01T15:05:39;11.40;99.40
14099;DHT22;7126;48.458;7.930;2023-03-01T15:08:05;11.40;99.30
14099;DHT22;7126;48.458;7.930;2023-03-01T15:10:36;11.30;99.30
14099;DHT22;7126;48.458;7.930;2023-03-01T15:13:22;11.20;99.40
14099;DHT22;7126;48.458;7.930;2023-03-01T15:15:49;11.10;99.50
14099;DHT22;7126;48.458;7.930;2023-03-01T15:18:22;11.10;99.70
14099;DHT22;7126;48.458;7.930;2023-03-01T15:20:51;11.00;99.90
14099;DHT22;7126;48.458;7.930;2023-03-01T15:23:26;11.00;99.90
14099;DHT22;7126;48.458;7.930;2023-03-01T15:25:54;10.80;99.90
14099;DHT22;7126;48.458;7.930;2023-03-01T15:28:30;10.70;99.90
14099;DHT22;7126;48.458;7.930;2023-03-01T15:31:22;10.60;99.90
14099;DHT22;7126;48.458;7.930;2023-03-01T15:33:48;10.60;99.90
14099;DHT22;7126;48.458;7.930;2023-03-01T15:38:58;10.50;99.90
14099;DHT22;7126;48.458;7.930;2023-03-01T15:41:31;10.40;99.90
14099;DHT22;7126;48.458;7.930;2023-03-01T15:43:58;10.30;99.90
14099;DHT22;7126;48.458;7.930;2023-03-01T15:46:30;10.20;99.90
14099;DHT22;7126;48.458;7.930;2023-03-01T15:48:59;10.20;99.90
14099;DHT22;7126;48.458;7.930;2023-03-01T15:51:36;10.10;99.90
14099;DHT22;7126;48.458;7.930;2023-03-01T15:54:10;10.10;99.90
14099;DHT22;7126;48.458;7.930;2023-03-01T15:56:40;10.00;99.90
14099;DHT22;7126;48.458;7.930;2023-03-01T15:59:09;10.00;99.90
14099;DHT22;7126;48.458;7.930;2023-03-01T16:01:37;9.90;99.90
14099;DHT22;7126;48.458;7.930;2023-03-01T16:04:02;9.80;99.90
14099;DHT22;7126;48.458;7.930;2023-03-01T16:06:28;9.70;99.90
14099;DHT22;7126;48.458;7.930;2023-03-01T16:08:53;9.60;99.90
14099;DHT22;7126;48.458;7.930;2023-03-01T16:11:19;9.60;99.90
14099;DHT22;7126;48.458;7.930;2023-03-01T16:13:45;9.50;99.90
14099;DHT22;7126;48.458;7.930;2023-03-01T16:16:12;9.40;99.90
14099;DHT22;7126;48.458;7.930;2023-03-01T16:18:41;9.30;99.90
14099;DHT22;7126;48.458;7.930;2023-03-01T16:21:08;9.30;99.90
14099;DHT22;7126;48.458;7.930;2023-03-01T16:23:35;9.30;99.90
14099;DHT22;7126;48.458;7.930;2023-03-01T16:26:01;9.20;99.90
14099;DHT22;7126;48.458;7.930;2023-03-01T16:28:27;9.10;99.90
14099;DHT22;7126;48.458;7.930;2023-03-01T16:30:52;9.10;99.90
14099;DHT22;7126;48.458;7.930;2023-03-01T16:33:18;9.00;99.90
14099;DHT22;7126;48.458;7.930;2023-03-01T16:35:43;8.90;99.90
14099;DHT22;7126;48.458;7.930;2023-03-01T16:38:10;8.80;99.90
14099;DHT22;7126;48.458;7.930;2023-03-01T16:40:36;8.70;99.90
14099;DHT22;7126;48.458;7.930;2023-03-01T16:43:01;8.60;99.90
14099;DHT22;7126;48.458;7.930;2023-03-01T16:45:32;8.60;99.90
14099;DHT22;7126;48.458;7.930;2023-03-01T16:48:00;8.50;99.90
14099;DHT22;7126;48.458;7.930;2023-03-01T16:50:26;8.40;99.90
14099;DHT22;7126;48.458;7.930;2023-03-01T16:52:51;8.40;99.90
14099;DHT22;7126;48.458;7.930;2023-03-01T16:55:17;8.40;99.90
14099;DHT22;7126;48.458;7.930;2023-03-01T16:57:42;8.40;99.90
14099;DHT22;7126;48.458;7.930;2023-03-01T17:00:10;8.30;99.90
14099;DHT22;7126;48.458;7.930;2023-03-01T17:02:38;8.30;99.90
14099;DHT22;7126;48.458;7.930;2023-03-01T17:05:04;8.20;99.90
14099;DHT22;7126;48.458;7.930;2023-03-01T17:07:30;8.20;99.90
14099;DHT22;7126;48.458;7.930;2023-03-01T17:10:04;8.20;99.90
14099;DHT22;7126;48.458;7.930;2023-03-01T17:12:29;8.10;99.90
14099;DHT22;7126;48.458;7.930;2023-03-01T17:14:55;8.10;99.90
14099;DHT22;7126;48.458;7.930;2023-03-01T17:17:21;8.10;99.90
14099;DHT22;7126;48.458;7.930;2023-03-01T17:19:46;8.00;99.90
14099;DHT22;7126;48.458;7.930;2023-03-01T17:22:12;8.00;99.90
14099;DHT22;7126;48.458;7.930;2023-03-01T17:24:42;7.90;99.90
14099;DHT22;7126;48.458;7.930;2023-03-01T17:27:08;7.90;99.90
14099;DHT22;7126;48.458;7.930;2023-03-01T17:29:34;7.80;99.90
14099;DHT22;7126;48.458;7.930;2023-03-01T17:32:00;7.70;99.90
14099;DHT22;7126;48.458;7.930;2023-03-01T17:34:26;7.70;99.90
14099;DHT22;7126;48.458;7.930;2023-03-01T17:36:52;7.70;99.90
14099;DHT22;7126;48.458;7.930;2023-03-01T17:39:19;7.70;99.90
14099;DHT22;7126;48.458;7.930;2023-03-01T17:41:52;7.70;99.90
14099;DHT22;7126;48.458;7.930;2023-03-01T17:44:18;7.60;99.90
14099;DHT22;7126;48.458;7.930;2023-03-01T17:46:44;7.60;99.90
14099;DHT22;7126;48.458;7.930;2023-03-01T17:49:10;7.50;99.90
14099;DHT22;7126;48.458;7.930;2023-03-01T17:51:36;7.50;99.90
14099;DHT22;7126;48.458;7.930;2023-03-01T17:54:01;7.50;99.90
14099;DHT22;7126;48.458;7.930;2023-03-01T17:56:27;7.50;99.90
14099;DHT22;7126;48.458;7.930;2023-03-01T17:58:53;7.40;99.90
14099;DHT22;7126;48.458;7.930;2023-03-01T18:01:20;7.40;99.90
14099;DHT22;7126;48.458;7.930;2023-03-01T18:03:46;7.40;99.90